Time;durP1;ratioP1;P1;durP2;ratioP2;P2;SDS_P1;SDS_P2;PMS_P1;PMS_P2;Temp;Humidity;BMP_temperature;BMP_pressure;BME280_temperature;BME280_humidity;BME280_pressure;Samples;Min_cycle;Max_cycle;Signal;HPM_P1;HPM_P2
2022/05/24 00:00:29;;;;;;;13.55;8.32;;;13.10;99.90;;;;;;4981973;28;20039;-72
2022/05/24 00:02:55;;;;;;;16.20;7.85;;;13.10;99.90;;;;;;4982401;28;20418;-73
2022/05/24 00:05:22;;;;;;;10.02;5.32;;;13.10;99.90;;;;;;4984530;28;20428;-73
2022/05/24 00:07:49;;;;;;;8.55;6.13;;;13.10;99.90;;;;;;4984186;28;20074;-73
2022/05/24 00:10:21;;;;;;;6.97;6.05;;;13.00;99.90;;;;;;4981986;28;20046;-73
2022/05/24 00:12:47;;;;;;;8.95;6.72;;;13.10;99.90;;;;;;4983565;28;20053;-73
2022/05/24 00:15:24;;;;;;;7.43;6.13;;;13.00;99.90;;;;;;4981637;28;20042;-71
2022/05/24 00:17:54;;;;;;;8.75;5.38;;;13.10;99.90;;;;;;4982408;28;20461;-71
2022/05/24 00:20:21;;;;;;;;;;;12.90;99.90;;;;;;4983188;28;20038;-74
2022/05/24 00:22:46;;;;;;;6.20;4.72;;;12.90;99.90;;;;;;4975982;28;19928;-71
2022/05/24 00:25:12;;;;;;;8.30;5.20;;;12.80;99.90;;;;;;4986058;28;20732;-71
2022/05/24 00:27:38;;;;;;;7.88;5.55;;;12.80;99.90;;;;;;4984821;28;20035;-72
2022/05/24 00:30:05;;;;;;;8.85;5.47;;;12.70;99.90;;;;;;4980799;28;20054;-72
2022/05/24 00:32:31;;;;;;;14.77;6.45;;;12.80;99.90;;;;;;4983532;28;20069;-72
2022/05/24 00:34:57;;;;;;;11.15;6.85;;;12.70;99.90;;;;;;4985739;28;20050;-72
2022/05/24 00:37:24;;;;;;;9.60;6.43;;;12.60;99.90;;;;;;4984504;28;20050;-72
2022/05/24 00:39:51;;;;;;;13.40;6.18;;;12.50;99.90;;;;;;4983274;28;20054;-72
2022/05/24 00:42:20;;;;;;;9.38;6.40;;;12.50;99.90;;;;;;4981633;28;20168;-74
2022/05/24 00:45:01;;;;;;;13.95;7.82;;;12.50;99.90;;;;;;4984647;28;20527;-71
2022/05/24 00:47:41;;;;;;;11.95;6.65;;;12.40;99.90;;;;;;4980570;28;20062;-72
2022/05/24 00:50:38;;;;;;;11.80;7.75;;;12.40;99.90;;;;;;4984155;28;20284;-73
2022/05/24 00:53:25;;;;;;;8.15;6.97;;;12.30;99.90;;;;;;4980257;28;20050;-72
2022/05/24 00:56:00;;;;;;;8.63;6.00;;;12.40;99.90;;;;;;4984094;28;20520;-73
2022/05/24 00:58:57;;;;;;;9.65;8.40;;;12.40;99.90;;;;;;4966130;28;20077;-72
2022/05/24 01:01:39;;;;;;;12.95;7.30;;;12.40;99.90;;;;;;4981704;28;20034;-72
2022/05/24 01:04:07;;;;;;;8.00;6.95;;;12.30;99.90;;;;;;4982743;28;20046;-73
2022/05/24 01:06:34;;;;;;;10.88;7.63;;;12.20;99.90;;;;;;4982084;28;20125;-72
2022/05/24 01:09:03;;;;;;;10.88;7.70;;;12.20;99.90;;;;;;4982248;28;20116;-73
2022/05/24 01:11:32;;;;;;;8.88;7.47;;;12.20;99.90;;;;;;4982809;28;20130;-72
2022/05/24 01:14:00;;;;;;;10.90;8.73;;;12.10;99.90;;;;;;4982663;28;20050;-74
2022/05/24 01:16:25;;;;;;;10.77;8.13;;;12.30;99.90;;;;;;4981849;28;20042;-71
2022/05/24 01:18:51;;;;;;;15.07;9.15;;;12.20;99.90;;;;;;4982654;28;20576;-71
2022/05/24 01:21:17;;;;;;;10.95;8.48;;;12.20;99.90;;;;;;4983550;28;20052;-71
2022/05/24 01:24:07;;;;;;;10.60;7.97;;;12.10;99.90;;;;;;4981891;28;20096;-74
2022/05/24 01:26:55;;;;;;;12.02;9.27;;;12.10;99.90;;;;;;4984309;28;20186;-73
2022/05/24 01:29:24;;;;;;;10.68;7.22;;;12.10;99.90;;;;;;4980486;28;20108;-71
2022/05/24 01:37:20;;;;;;;12.75;8.02;;;12.10;99.90;;;;;;4983721;28;20050;-74
2022/05/24 01:39:52;;;;;;;9.25;7.57;;;12.10;99.90;;;;;;4982187;28;20864;-71
2022/05/24 01:42:20;;;;;;;13.15;8.45;;;12.20;99.90;;;;;;4984759;28;20061;-71
2022/05/24 01:44:59;;;;;;;11.57;8.00;;;12.30;99.90;;;;;;4978804;28;20106;-71
2022/05/24 01:47:27;;;;;;;12.65;7.72;;;12.30;99.90;;;;;;4982712;28;20038;-73
2022/05/24 01:49:57;;;;;;;13.45;7.60;;;12.30;99.90;;;;;;4981856;28;20101;-73
2022/05/24 01:52:32;;;;;;;22.20;9.98;;;12.40;99.90;;;;;;4983268;28;20059;-73
2022/05/24 01:55:05;;;;;;;22.30;8.85;;;12.30;99.90;;;;;;4982658;28;20042;-73
2022/05/24 01:57:34;;;;;;;13.35;9.23;;;12.50;99.90;;;;;;4983015;28;20456;-73
2022/05/24 02:00:04;;;;;;;14.23;8.77;;;12.50;99.90;;;;;;4981545;28;20084;-73
2022/05/24 02:02:29;;;;;;;11.98;8.63;;;12.50;99.90;;;;;;4982419;28;20043;-74
2022/05/24 02:04:55;;;;;;;12.32;9.10;;;12.50;99.90;;;;;;4975231;28;20042;-73
2022/05/24 02:07:23;;;;;;;8.95;7.80;;;12.70;99.90;;;;;;4981125;28;20046;-73
2022/05/24 02:09:52;;;;;;;8.70;7.85;;;12.60;99.90;;;;;;4976229;28;20050;-71
2022/05/24 02:12:28;;;;;;;11.57;9.63;;;12.60;99.90;;;;;;4982492;28;20480;-71
2022/05/24 02:15:05;;;;;;;12.88;8.50;;;12.60;99.90;;;;;;4976852;28;20137;-72
2022/05/24 02:17:52;;;;;;;10.05;8.30;;;12.60;99.90;;;;;;4987036;28;20476;-71
2022/05/24 02:20:27;;;;;;;14.05;9.57;;;12.60;99.90;;;;;;4984189;28;20057;-73
2022/05/24 02:22:53;;;;;;;13.10;8.50;;;12.60;99.90;;;;;;4986279;28;20095;-71
2022/05/24 02:25:29;;;;;;;12.48;8.35;;;12.60;99.90;;;;;;4985123;28;20077;-74
2022/05/24 02:27:55;;;;;;;10.32;8.50;;;12.70;99.90;;;;;;4986674;28;20493;-74
2022/05/24 02:30:25;;;;;;;12.45;8.75;;;12.60;99.90;;;;;;4981671;28;20138;-72
2022/05/24 02:32:51;;;;;;;11.52;8.93;;;12.70;99.90;;;;;;4988667;28;20039;-72
2022/05/24 02:35:17;;;;;;;14.77;9.48;;;12.60;99.90;;;;;;4984839;28;20412;-74
2022/05/24 02:37:43;;;;;;;13.23;9.95;;;12.60;99.90;;;;;;4986573;28;20046;-72
2022/05/24 02:42:55;;;;;;;17.00;10.45;;;12.60;99.90;;;;;;4987062;28;20054;-72
2022/05/24 02:45:21;;;;;;;13.27;9.95;;;12.80;99.90;;;;;;4983274;28;20050;-73
2022/05/24 02:47:48;;;;;;;11.68;9.25;;;12.80;99.90;;;;;;4985075;28;20042;-71
2022/05/24 02:50:14;;;;;;;11.32;10.23;;;12.80;99.90;;;;;;4984597;28;20053;-72
2022/05/24 02:52:40;;;;;;;14.40;11.20;;;12.80;99.90;;;;;;4987287;28;20504;-72
2022/05/24 02:55:08;;;;;;;13.45;12.10;;;12.90;99.90;;;;;;4986530;28;20042;-74
2022/05/24 02:57:34;;;;;;;18.38;12.63;;;12.80;99.90;;;;;;4986901;28;20078;-73
2022/05/24 03:00:00;;;;;;;13.90;11.70;;;12.90;99.90;;;;;;4981579;28;20042;-73
2022/05/24 03:02:25;;;;;;;15.68;12.57;;;12.90;99.90;;;;;;4986220;28;20489;-72
2022/05/24 03:04:51;;;;;;;18.80;14.55;;;12.80;99.90;;;;;;4984973;28;20052;-71
2022/05/24 03:10:01;;;;;;;19.45;17.35;;;13.00;99.90;;;;;;4983533;28;20060;-71
2022/05/24 03:15:12;;;;;;;23.75;18.42;;;13.10;99.90;;;;;;4980937;28;20046;-72
2022/05/24 03:17:37;;;;;;;25.20;18.98;;;13.00;99.90;;;;;;4986173;28;20057;-72
2022/05/24 03:20:04;;;;;;;29.50;19.85;;;13.00;99.90;;;;;;4965237;28;20043;-71
2022/05/24 03:22:30;;;;;;;27.08;21.42;;;13.10;99.90;;;;;;4986703;28;20065;-72
2022/05/24 03:24:56;;;;;;;31.67;23.08;;;13.00;99.90;;;;;;4983615;28;20046;-72
2022/05/24 03:27:21;;;;;;;28.65;21.00;;;13.00;99.90;;;;;;4984371;28;20053;-72
2022/05/24 03:29:48;;;;;;;31.33;23.48;;;13.20;99.90;;;;;;4980610;28;20131;-72
2022/05/24 03:32:16;;;;;;;30.15;23.98;;;13.20;99.90;;;;;;4987263;28;20731;-72
2022/05/24 03:34:43;;;;;;;33.60;24.63;;;13.20;99.90;;;;;;4985020;28;20409;-73
2022/05/24 03:37:09;;;;;;;31.85;24.25;;;13.20;99.90;;;;;;4984872;28;20045;-72
2022/05/24 03:39:35;;;;;;;32.63;24.15;;;13.20;99.90;;;;;;4982384;28;20096;-72
2022/05/24 03:42:02;;;;;;;34.90;24.73;;;13.30;99.90;;;;;;4983833;28;20809;-72
2022/05/24 03:44:27;;;;;;;31.67;25.33;;;13.30;99.90;;;;;;4984750;28;20051;-73
2022/05/24 03:46:54;;;;;;;30.85;22.15;;;13.30;99.90;;;;;;4985640;28;20042;-73
2022/05/24 03:49:20;;;;;;;32.72;21.08;;;13.20;99.90;;;;;;4986018;28;20534;-73
2022/05/24 03:51:46;;;;;;;24.88;19.83;;;13.30;99.90;;;;;;4983545;28;20050;-73
2022/05/24 03:54:12;;;;;;;26.67;20.83;;;13.30;99.90;;;;;;4984820;28;20057;-72
2022/05/24 03:57:59;;;;;;;25.35;19.30;;;13.20;99.90;;;;;;4972913;28;20092;-73
2022/05/24 03:59:25;;;;;;;23.73;17.77;;;13.20;99.90;;;;;;4972988;28;20043;-72
2022/05/24 04:01:51;;;;;;;24.70;16.85;;;13.20;99.90;;;;;;4971504;28;20113;-72
2022/05/24 04:04:16;;;;;;;22.73;16.95;;;13.10;99.90;;;;;;4958818;28;20444;-74
2022/05/24 04:06:42;;;;;;;20.50;14.77;;;13.10;99.90;;;;;;4984638;28;20081;-72
2022/05/24 04:09:08;;;;;;;16.63;13.13;;;13.10;99.90;;;;;;4982220;28;20092;-71
2022/05/24 04:11:34;;;;;;;14.60;12.63;;;13.10;99.90;;;;;;4983832;28;20038;-72
2022/05/24 04:14:00;;;;;;;19.83;13.05;;;13.10;99.90;;;;;;4984221;28;20042;-73
2022/05/24 04:16:26;;;;;;;21.73;12.68;;;13.10;99.90;;;;;;4984860;28;20344;-72
2022/05/24 04:18:52;;;;;;;13.48;9.90;;;13.00;99.90;;;;;;4983480;28;20031;-72
2022/05/24 04:21:17;;;;;;;17.85;12.70;;;13.10;99.90;;;;;;4977810;28;20048;-72
2022/05/24 04:23:43;;;;;;;17.92;11.75;;;13.10;99.90;;;;;;4984877;28;20046;-71
2022/05/24 04:26:09;;;;;;;17.40;11.82;;;13.10;99.90;;;;;;4982816;28;20038;-71
2022/05/24 04:28:35;;;;;;;18.38;12.13;;;13.00;99.90;;;;;;4982757;28;20031;-72
2022/05/24 04:31:01;;;;;;;21.25;13.07;;;13.00;99.90;;;;;;4982334;28;20564;-73
2022/05/24 04:33:26;;;;;;;17.33;12.07;;;13.00;99.90;;;;;;4985015;28;20042;-72
2022/05/24 04:35:52;;;;;;;16.58;12.75;;;13.00;99.90;;;;;;4967020;28;20394;-72
2022/05/24 04:38:17;;;;;;;19.67;14.07;;;13.00;99.90;;;;;;4980562;28;20057;-72
2022/05/24 04:43:28;;;;;;;19.60;13.18;;;13.00;99.90;;;;;;4967895;28;20050;-72
2022/05/24 04:45:55;;;;;;;20.20;15.18;;;13.10;99.90;;;;;;4978398;28;20097;-71
2022/05/24 04:48:21;;;;;;;19.67;14.30;;;13.10;99.90;;;;;;4981066;28;20108;-73
2022/05/24 04:50:54;;;;;;;17.15;13.88;;;13.10;99.90;;;;;;4982917;28;20050;-72
2022/05/24 04:53:20;;;;;;;20.80;14.90;;;13.10;99.90;;;;;;4983473;28;20113;-74
2022/05/24 04:55:48;;;;;;;21.83;15.45;;;13.10;99.90;;;;;;4985300;28;20461;-73
2022/05/24 04:58:15;;;;;;;22.55;14.20;;;13.10;99.90;;;;;;4982492;28;20477;-72
2022/05/24 05:00:42;;;;;;;20.60;15.77;;;13.20;99.90;;;;;;4982811;28;20443;-73
2022/05/24 05:03:09;;;;;;;21.50;17.00;;;13.10;99.90;;;;;;4983940;28;20045;-73
2022/05/24 05:05:35;;;;;;;21.13;15.63;;;13.20;99.90;;;;;;4984368;28;20044;-73
2022/05/24 05:08:00;;;;;;;21.38;16.20;;;13.20;99.90;;;;;;4982734;28;20042;-73
2022/05/24 05:10:26;;;;;;;22.92;16.73;;;13.20;99.90;;;;;;4984888;28;20084;-74
2022/05/24 05:12:52;;;;;;;29.92;16.35;;;13.20;99.90;;;;;;4985752;28;20046;-77
2022/05/24 05:15:17;;;;;;;19.63;15.35;;;13.30;99.90;;;;;;4982931;28;20088;-71
2022/05/24 05:17:43;;;;;;;21.58;17.15;;;13.30;99.90;;;;;;4978936;28;20042;-72
2022/05/24 05:20:09;;;;;;;23.85;16.25;;;13.30;99.90;;;;;;4981563;28;20652;-71
2022/05/24 05:22:37;;;;;;;20.38;16.02;;;13.40;99.90;;;;;;4984259;28;20096;-71
2022/05/24 05:25:03;;;;;;;23.05;16.60;;;13.40;99.90;;;;;;4982643;28;20074;-72
2022/05/24 05:27:29;;;;;;;21.05;16.05;;;13.30;99.90;;;;;;4984031;28;20076;-71
2022/05/24 05:32:38;;;;;;;26.38;18.13;;;13.30;99.90;;;;;;4983660;28;21006;-72
2022/05/24 05:35:07;;;;;;;28.05;17.75;;;13.30;99.90;;;;;;4982201;28;20047;-72
2022/05/24 05:37:33;;;;;;;24.85;16.63;;;13.30;99.90;;;;;;4978842;28;20043;-72
2022/05/24 05:40:02;;;;;;;25.25;18.55;;;13.30;99.90;;;;;;4980299;28;20074;-72
2022/05/24 05:42:27;;;;;;;21.63;15.02;;;13.30;99.90;;;;;;4982907;28;20050;-72
2022/05/24 05:44:53;;;;;;;26.92;17.67;;;13.20;99.90;;;;;;4972882;28;20046;-73
2022/05/24 05:47:19;;;;;;;30.05;17.38;;;13.30;99.90;;;;;;4965839;28;20047;-72
2022/05/24 05:49:46;;;;;;;36.53;16.38;;;13.30;99.90;;;;;;4978985;28;20038;-72
2022/05/24 05:52:12;;;;;;;25.63;15.73;;;13.30;99.90;;;;;;4987029;28;20150;-72
2022/05/24 05:54:38;;;;;;;22.35;16.20;;;13.30;99.90;;;;;;4983894;28;20133;-72
2022/05/24 05:57:06;;;;;;;30.45;16.05;;;13.30;99.90;;;;;;4982751;28;20054;-72
2022/05/24 05:59:32;;;;;;;24.90;16.48;;;13.20;99.90;;;;;;4986066;28;20053;-72
2022/05/24 06:01:58;;;;;;;29.73;13.23;;;13.30;99.90;;;;;;4982491;28;20034;-72
2022/05/24 06:04:24;;;;;;;14.13;10.25;;;13.20;99.90;;;;;;4986320;28;20053;-72
2022/05/24 06:06:52;;;;;;;15.88;10.13;;;13.10;99.90;;;;;;4984658;28;20382;-72
2022/05/24 06:09:17;;;;;;;11.10;8.55;;;13.10;99.90;;;;;;4987470;28;20041;-72
2022/05/24 06:11:44;;;;;;;11.55;7.47;;;13.10;99.90;;;;;;4981876;28;20984;-72
2022/05/24 06:14:10;;;;;;;15.07;8.98;;;13.10;99.90;;;;;;4980725;28;20058;-70
2022/05/24 06:16:36;;;;;;;15.50;9.98;;;13.20;99.90;;;;;;4987160;28;20033;-71
2022/05/24 06:19:03;;;;;;;12.23;8.40;;;13.20;99.90;;;;;;4987696;28;20046;-71
2022/05/24 06:21:33;;;;;;;14.35;8.88;;;13.30;99.90;;;;;;4980690;28;20038;-72
2022/05/24 06:24:05;;;;;;;17.17;8.27;;;13.30;99.90;;;;;;4986974;28;20286;-71
2022/05/24 06:26:32;;;;;;;37.92;11.63;;;13.40;99.90;;;;;;4984434;28;20125;-71
2022/05/24 06:28:58;;;;;;;12.38;9.20;;;13.50;99.90;;;;;;4975752;28;20154;-72
2022/05/24 06:31:24;;;;;;;11.18;8.45;;;13.50;99.90;;;;;;4985539;28;20401;-72
2022/05/24 06:33:50;;;;;;;18.02;9.38;;;13.50;99.90;;;;;;4982168;28;20042;-73
2022/05/24 06:36:16;;;;;;;10.68;8.15;;;13.70;99.90;;;;;;4987601;28;20505;-72
2022/05/24 06:38:42;;;;;;;17.83;8.55;;;13.50;99.90;;;;;;4986257;28;20078;-73
2022/05/24 06:41:07;;;;;;;9.90;7.47;;;13.60;99.90;;;;;;4987670;28;20050;-73
2022/05/24 06:43:34;;;;;;;20.05;8.57;;;13.70;99.90;;;;;;4984313;28;20133;-71
2022/05/24 06:46:00;;;;;;;16.92;7.65;;;13.70;99.90;;;;;;4988548;28;20474;-72
2022/05/24 06:48:26;;;;;;;14.18;5.88;;;13.70;99.90;;;;;;4986647;28;20042;-73
2022/05/24 06:50:52;;;;;;;8.13;5.68;;;13.80;99.90;;;;;;4986456;28;20426;-74
2022/05/24 06:53:17;;;;;;;13.95;5.25;;;13.80;99.90;;;;;;4982397;28;20078;-73
2022/05/24 06:55:43;;;;;;;9.27;5.65;;;13.60;99.90;;;;;;4986170;28;20038;-75
2022/05/24 06:58:09;;;;;;;10.57;6.30;;;13.80;99.90;;;;;;4999613;28;20039;-75
2022/05/24 07:03:19;;;;;;;20.95;6.80;;;13.80;99.90;;;;;;4985783;28;20057;-76
2022/05/24 07:05:45;;;;;;;13.73;6.32;;;13.70;99.90;;;;;;4989335;28;20389;-76
2022/05/24 07:08:11;;;;;;;10.20;5.75;;;13.70;99.90;;;;;;4984063;28;20034;-74
2022/05/24 07:10:38;;;;;;;15.68;6.60;;;13.80;99.90;;;;;;4985188;28;20404;-76
2022/05/24 07:13:09;;;;;;;11.07;5.43;;;13.80;99.90;;;;;;4981415;28;20058;-74
2022/05/24 07:15:36;;;;;;;12.23;5.40;;;13.90;99.90;;;;;;4986184;28;20038;-75
2022/05/24 07:18:02;;;;;;;13.85;5.95;;;13.70;99.90;;;;;;4985706;28;20411;-73
2022/05/24 07:20:29;;;;;;;10.98;6.07;;;13.60;99.90;;;;;;4988065;28;20076;-75
2022/05/24 07:23:07;;;;;;;11.38;6.38;;;13.70;99.90;;;;;;4984985;28;20053;-74
2022/05/24 07:25:33;;;;;;;13.95;7.72;;;13.60;99.90;;;;;;4986554;28;20126;-75
2022/05/24 07:27:58;;;;;;;10.45;5.72;;;13.60;99.90;;;;;;4983363;28;20055;-75
2022/05/24 07:30:24;;;;;;;8.85;5.47;;;13.50;99.90;;;;;;4984436;28;20401;-73
2022/05/24 07:32:50;;;;;;;12.55;5.50;;;13.50;99.90;;;;;;4985412;28;20039;-71
2022/05/24 07:35:15;;;;;;;12.80;5.75;;;13.60;99.90;;;;;;4986444;28;20066;-72
2022/05/24 07:37:41;;;;;;;15.98;6.95;;;13.60;99.90;;;;;;4984977;28;20445;-72
2022/05/24 07:45:48;;;;;;;20.30;7.32;;;13.70;99.90;;;;;;4985017;28;20077;-72
2022/05/24 07:48:14;;;;;;;10.38;6.93;;;13.80;99.90;;;;;;4984296;28;20062;-75
2022/05/24 07:50:41;;;;;;;10.95;6.45;;;13.70;99.90;;;;;;4984825;28;20061;-76
2022/05/24 07:53:08;;;;;;;10.65;6.53;;;13.70;99.90;;;;;;4985406;28;20195;-76
2022/05/24 07:55:34;;;;;;;12.90;6.93;;;13.80;99.90;;;;;;4986782;28;20421;-78
2022/05/24 07:57:59;;;;;;;11.18;7.57;;;13.80;99.90;;;;;;4982518;28;20038;-75
2022/05/24 08:00:25;;;;;;;22.13;8.63;;;13.80;99.90;;;;;;4985837;28;20374;-76
2022/05/24 08:02:52;;;;;;;15.63;8.35;;;13.70;99.90;;;;;;4967876;28;20042;-76
2022/05/24 08:05:19;;;;;;;11.73;6.68;;;13.80;99.90;;;;;;4985064;28;20054;-74
2022/05/24 08:07:49;;;;;;;12.63;8.05;;;13.70;99.90;;;;;;4968059;28;20050;-75
2022/05/24 08:10:16;;;;;;;21.73;9.20;;;13.70;99.90;;;;;;4981888;28;20069;-74
2022/05/24 08:12:42;;;;;;;11.30;7.78;;;13.80;99.90;;;;;;4983178;28;20177;-73
2022/05/24 08:15:10;;;;;;;14.77;8.63;;;13.80;99.90;;;;;;4983491;28;20499;-73
2022/05/24 08:17:36;;;;;;;16.25;7.30;;;13.80;99.90;;;;;;4984274;28;20064;-72
2022/05/24 08:20:04;;;;;;;13.45;8.00;;;14.00;99.90;;;;;;4984339;28;20549;-72
2022/05/24 08:22:29;;;;;;;9.93;7.63;;;13.90;99.90;;;;;;4984453;28;20177;-74
2022/05/24 08:24:55;;;;;;;13.50;7.45;;;14.20;99.90;;;;;;4983580;28;20129;-74
2022/05/24 08:27:20;;;;;;;15.25;7.35;;;14.40;99.90;;;;;;4985066;28;20046;-74
2022/05/24 08:29:46;;;;;;;11.63;5.78;;;14.40;99.90;;;;;;4982180;28;20058;-75
2022/05/24 08:32:12;;;;;;;10.75;5.82;;;14.20;99.90;;;;;;4981427;28;20031;-73
2022/05/24 08:34:38;;;;;;;10.05;5.15;;;14.10;99.90;;;;;;4982556;28;20169;-74
2022/05/24 08:37:05;;;;;;;7.00;2.85;;;14.00;99.90;;;;;;4984707;28;20580;-73
2022/05/24 08:39:31;;;;;;;14.45;3.30;;;13.30;99.90;;;;;;4984294;28;20073;-74
2022/05/24 08:42:06;;;;;;;13.52;5.68;;;13.00;99.90;;;;;;4985475;28;20061;-73
2022/05/24 08:50:19;;;;;;;7.88;5.43;;;12.90;99.90;;;;;;4981858;28;20074;-73
2022/05/24 08:52:57;;;;;;;8.48;4.55;;;12.90;99.90;;;;;;4976312;28;20467;-72
2022/05/24 08:55:24;;;;;;;5.00;2.58;;;12.80;99.90;;;;;;4984710;28;20056;-77
2022/05/24 08:57:56;;;;;;;6.35;3.35;;;12.70;99.90;;;;;;4978943;28;20129;-74
2022/05/24 09:00:25;;;;;;;3.95;2.65;;;12.80;99.90;;;;;;4974789;28;20044;-75
2022/05/24 09:02:51;;;;;;;8.05;2.03;;;12.90;99.90;;;;;;4975774;28;20504;-75
2022/05/24 09:05:28;;;;;;;6.80;2.83;;;12.90;99.90;;;;;;4965589;28;20047;-74
2022/05/24 09:08:12;;;;;;;2.67;1.95;;;13.00;99.90;;;;;;4980261;28;20048;-75
2022/05/24 09:10:43;;;;;;;5.43;2.33;;;13.10;99.90;;;;;;4983584;28;20053;-75
2022/05/24 09:13:22;;;;;;;5.10;1.98;;;13.30;99.90;;;;;;4970369;28;20042;-74
2022/05/24 09:15:55;;;;;;;3.75;1.67;;;13.40;99.90;;;;;;4979518;28;20133;-75
2022/05/24 09:18:58;;;;;;;4.18;1.85;;;13.40;99.90;;;;;;4983809;28;20064;-75
2022/05/24 09:21:28;;;;;;;2.58;1.40;;;13.50;99.90;;;;;;4982783;28;20177;-75
2022/05/24 09:24:18;;;;;;;2.38;1.63;;;13.50;99.90;;;;;;4983494;28;20489;-75
2022/05/24 09:27:17;;;;;;;4.22;2.20;;;13.30;99.90;;;;;;4948900;28;20126;-73
2022/05/24 09:30:05;;;;;;;3.90;2.05;;;13.40;99.90;;;;;;4974058;28;20121;-74
2022/05/24 09:32:41;;;;;;;7.10;2.42;;;13.40;99.90;;;;;;4985872;28;20042;-74
2022/05/24 09:35:23;;;;;;;7.03;2.88;;;13.70;99.90;;;;;;4982531;28;20400;-74
2022/05/24 09:38:04;;;;;;;5.78;2.30;;;13.90;99.90;;;;;;4984765;28;20057;-75
2022/05/24 09:40:42;;;;;;;2.90;2.10;;;14.00;99.90;;;;;;4983970;28;20066;-74
2022/05/24 09:43:17;;;;;;;5.57;2.00;;;13.90;99.90;;;;;;4984666;28;20471;-75
2022/05/24 09:45:46;;;;;;;4.95;1.95;;;13.90;99.90;;;;;;4984751;28;20043;-74
2022/05/24 09:48:22;;;;;;;6.07;2.42;;;13.90;99.90;;;;;;4981628;28;20034;-75
2022/05/24 09:50:53;;;;;;;3.85;2.22;;;14.00;99.90;;;;;;4983026;28;20501;-77
2022/05/24 09:53:26;;;;;;;5.15;2.15;;;14.10;99.90;;;;;;4976595;28;20135;-75
2022/05/24 09:55:59;;;;;;;6.70;2.25;;;14.30;99.90;;;;;;4984160;28;20043;-74
2022/05/24 09:58:57;;;;;;;4.90;3.28;;;14.50;99.90;;;;;;4978545;28;20043;-75
2022/05/24 10:01:31;;;;;;;2.55;2.00;;;15.00;99.90;;;;;;4972305;28;20153;-74
2022/05/24 10:04:25;;;;;;;4.50;2.92;;;15.00;99.90;;;;;;4981527;28;20050;-72
2022/05/24 10:07:00;;;;;;;6.28;3.22;;;14.70;99.90;;;;;;4983430;28;20054;-73
2022/05/24 10:09:54;;;;;;;3.10;1.75;;;14.30;99.90;;;;;;4981746;28;20034;-74
2022/05/24 10:12:52;;;;;;;3.90;2.03;;;13.90;99.90;;;;;;4980944;28;20073;-74
2022/05/24 10:15:44;;;;;;;2.83;1.10;;;13.70;99.90;;;;;;4964621;28;20063;-74
2022/05/24 10:18:27;;;;;;;3.35;1.08;;;13.60;99.90;;;;;;4972297;28;20441;-73
2022/05/24 10:21:17;;;;;;;1.65;1.10;;;13.40;99.90;;;;;;4982582;28;20054;-73
2022/05/24 10:24:13;;;;;;;3.03;1.10;;;13.50;99.90;;;;;;4965537;28;20386;-73
2022/05/24 10:26:57;;;;;;;2.92;1.38;;;13.80;99.90;;;;;;4971104;28;20371;-73
2022/05/24 10:29:40;;;;;;;5.78;2.13;;;14.30;99.90;;;;;;4982120;28;20069;-73
2022/05/24 10:38:17;;;;;;;4.50;2.00;;;14.80;99.90;;;;;;4983820;28;20046;-73
2022/05/24 10:38:20;;;;;;;8.07;2.03;;;15.30;99.90;;;;;;4984898;28;20078;-73
2022/05/24 10:41:08;;;;;;;6.32;2.20;;;15.60;99.90;;;;;;4986913;28;20046;-74
2022/05/24 10:43:58;;;;;;;2.00;1.75;;;16.00;99.90;;;;;;4967865;28;20042;-74
2022/05/24 10:46:43;;;;;;;3.95;2.00;;;16.00;99.90;;;;;;4969808;28;20046;-74
2022/05/24 10:49:35;;;;;;;2.80;2.05;;;15.30;99.90;;;;;;4987430;28;20043;-75
2022/05/24 10:52:12;;;;;;;3.58;2.30;;;15.20;99.90;;;;;;4982690;28;20068;-74
2022/05/24 10:54:51;;;;;;;2.97;1.80;;;14.90;99.90;;;;;;4985715;28;20050;-75
2022/05/24 10:57:21;;;;;;;3.67;2.17;;;14.80;99.90;;;;;;4984431;28;20039;-74
2022/05/24 11:00:06;;;;;;;3.15;2.42;;;14.70;99.90;;;;;;4984220;28;20473;-75
2022/05/24 11:03:01;;;;;;;5.32;1.88;;;14.40;99.90;;;;;;4987208;28;20129;-75
2022/05/24 11:05:35;;;;;;;1.38;1.27;;;13.80;99.90;;;;;;4981946;28;20058;-74
2022/05/24 11:08:25;;;;;;;3.28;1.83;;;13.50;99.90;;;;;;4985541;28;20038;-74
2022/05/24 11:10:51;;;;;;;6.47;2.63;;;13.60;99.90;;;;;;4978984;28;20469;-75
2022/05/24 11:13:40;;;;;;;9.18;1.73;;;14.40;99.90;;;;;;4983732;28;20376;-74
2022/05/24 11:16:34;;;;;;;4.32;1.90;;;14.60;99.90;;;;;;4985716;28;20500;-72
2022/05/24 11:19:00;;;;;;;1.95;1.35;;;14.70;99.90;;;;;;4993728;28;20064;-74
2022/05/24 11:21:34;;;;;;;1.65;1.20;;;14.70;99.90;;;;;;4984903;28;20533;-73
2022/05/24 11:24:06;;;;;;;6.93;1.48;;;14.50;99.90;;;;;;4987067;28;20045;-73
2022/05/24 11:26:35;;;;;;;2.15;1.13;;;14.30;99.90;;;;;;4985764;28;20827;-73
2022/05/24 11:29:19;;;;;;;3.95;1.70;;;14.10;99.90;;;;;;4984647;28;20401;-73
2022/05/24 11:31:49;;;;;;;2.72;0.80;;;14.30;99.90;;;;;;4985470;28;20041;-74
2022/05/24 11:34:18;;;;;;;4.45;1.55;;;14.10;99.90;;;;;;4987599;28;20038;-73
2022/05/24 11:36:48;;;;;;;3.47;2.40;;;14.40;99.90;;;;;;4984145;28;20050;-73
2022/05/24 11:39:13;;;;;;;2.72;0.75;;;14.30;99.90;;;;;;4987276;28;20417;-74
2022/05/24 11:41:39;;;;;;;1.45;0.60;;;14.40;99.90;;;;;;4986011;28;20050;-73
2022/05/24 11:44:07;;;;;;;4.47;1.00;;;14.40;99.90;;;;;;4985797;28;20121;-73
2022/05/24 11:46:33;;;;;;;3.70;1.02;;;14.30;99.90;;;;;;4984191;28;20046;-73
2022/05/24 11:49:00;;;;;;;2.38;0.95;;;14.40;99.90;;;;;;4983079;28;20042;-74
2022/05/24 11:51:37;;;;;;;5.72;1.67;;;14.40;99.90;;;;;;4984411;28;20084;-73
2022/05/24 11:54:06;;;;;;;2.78;0.60;;;14.50;99.90;;;;;;4986625;28;20053;-73
2022/05/24 11:56:33;;;;;;;6.20;0.63;;;14.90;99.90;;;;;;4985399;28;20508;-73
2022/05/24 11:59:04;;;;;;;1.45;1.30;;;15.00;99.90;;;;;;4982818;28;20209;-75
2022/05/24 12:01:42;;;;;;;3.35;0.90;;;14.80;99.90;;;;;;4985800;28;20066;-73
2022/05/24 12:09:59;;;;;;;5.72;1.20;;;14.20;99.90;;;;;;4983840;28;20047;-74
2022/05/24 12:12:55;;;;;;;2.95;1.02;;;14.10;99.90;;;;;;4983342;28;20042;-73
2022/05/24 12:15:44;;;;;;;5.95;1.67;;;14.10;99.90;;;;;;4982280;28;20089;-74
2022/05/24 12:18:11;;;;;;;3.72;1.52;;;14.00;99.90;;;;;;4985513;28;20169;-73
2022/05/24 12:20:36;;;;;;;6.00;1.23;;;14.20;99.90;;;;;;4982501;28;20145;-74
2022/05/24 12:23:09;;;;;;;8.70;1.67;;;14.70;99.90;;;;;;4986049;28;20474;-74
2022/05/24 12:25:59;;;;;;;19.40;3.17;;;14.50;99.90;;;;;;4986278;28;20084;-73
2022/05/24 12:28:50;;;;;;;2.95;0.70;;;14.50;99.90;;;;;;4981733;28;20131;-75
2022/05/24 12:31:28;;;;;;;3.63;1.17;;;15.20;99.90;;;;;;4984400;28;20074;-75
2022/05/24 12:34:04;;;;;;;14.68;2.35;;;14.80;99.90;;;;;;4984061;28;20065;-75
2022/05/24 12:36:35;;;;;;;2.88;0.85;;;14.70;99.90;;;;;;4975900;28;20054;-77
2022/05/24 12:39:12;;;;;;;4.00;0.75;;;14.70;99.90;;;;;;4974893;28;20078;-75
2022/05/24 12:41:42;;;;;;;4.93;1.10;;;14.70;99.90;;;;;;4985925;28;20046;-74
2022/05/24 12:44:21;;;;;;;3.53;1.33;;;14.50;99.90;;;;;;4980899;28;20133;-75
2022/05/24 12:46:50;;;;;;;2.05;1.08;;;14.60;99.90;;;;;;4986284;28;20133;-74
2022/05/24 12:49:19;;;;;;;5.50;0.80;;;14.50;99.90;;;;;;4983551;28;20367;-75
2022/05/24 12:51:45;;;;;;;3.58;1.20;;;15.10;99.90;;;;;;4985953;28;20414;-76
2022/05/24 12:54:29;;;;;;;2.95;0.95;;;15.40;99.90;;;;;;4984120;28;20046;-75
2022/05/24 12:56:57;;;;;;;5.85;1.63;;;15.70;99.90;;;;;;4983891;28;20061;-73
2022/05/24 12:59:31;;;;;;;6.25;1.50;;;15.90;99.90;;;;;;4982163;28;20046;-73
2022/05/24 13:02:15;;;;;;;2.28;0.93;;;15.80;99.90;;;;;;4984942;28;20038;-73
2022/05/24 13:04:41;;;;;;;5.35;1.25;;;15.70;99.90;;;;;;4983587;28;20061;-74
2022/05/24 13:07:35;;;;;;;3.30;1.17;;;15.30;99.90;;;;;;4983995;28;20046;-74
2022/05/24 13:10:02;;;;;;;4.15;2.20;;;15.10;99.90;;;;;;4982206;28;20046;-74
2022/05/24 13:12:28;;;;;;;3.65;1.48;;;14.80;99.90;;;;;;4984174;28;20042;-72
2022/05/24 13:15:00;;;;;;;4.53;1.95;;;14.80;99.90;;;;;;4981223;28;20057;-73
2022/05/24 13:17:29;;;;;;;6.40;2.80;;;14.70;99.90;;;;;;4983465;28;20045;-73
2022/05/24 13:20:08;;;;;;;4.22;2.05;;;14.60;99.90;;;;;;4979240;28;20050;-73
2022/05/24 13:22:55;;;;;;;4.13;1.63;;;15.00;99.90;;;;;;4985904;28;20042;-73
2022/05/24 13:25:47;;;;;;;3.28;1.55;;;15.20;99.90;;;;;;4983511;28;20054;-73
2022/05/24 13:28:32;;;;;;;3.28;2.10;;;15.30;99.90;;;;;;4993450;28;20556;-73
2022/05/24 13:33:48;;;;;;;2.63;1.90;;;15.20;99.90;;;;;;4983074;28;20149;-73
2022/05/24 13:36:22;;;;;;;4.15;1.90;;;15.30;99.90;;;;;;4982073;28;20489;-74
2022/05/24 13:39:03;;;;;;;8.70;1.75;;;15.70;99.90;;;;;;4984659;28;20545;-77
2022/05/24 13:41:32;;;;;;;4.80;1.95;;;15.70;99.90;;;;;;4984762;28;20034;-72
2022/05/24 13:44:09;;;;;;;9.90;3.70;;;15.50;99.90;;;;;;4976679;28;20050;-72